Time;durP1;ratioP1;P1;durP2;ratioP2;P2;SDS_P1;SDS_P2;PMS_P1;PMS_P2;Temp;Humidity;BMP_temperature;BMP_pressure;BME280_temperature;BME280_humidity;BME280_pressure;Samples;Min_cycle;Max_cycle;Signal;HPM_P1;HPM_P2
2023/08/23 00:00:11;;;;;;;5.13;3.22;;;18.70;99.90;;;;;;5014080;28;20249;-80
2023/08/23 00:02:42;;;;;;;5.40;3.78;;;18.30;99.90;;;;;;5032961;28;20239;-84
2023/08/23 00:05:10;;;;;;;5.65;3.67;;;18.50;99.90;;;;;;5001756;28;20203;-81
2023/08/23 00:07:37;;;;;;;4.57;2.90;;;18.80;99.90;;;;;;5005976;28;20203;-80
2023/08/23 00:10:07;;;;;;;5.60;3.35;;;19.30;99.90;;;;;;5019102;28;20235;-79
2023/08/23 00:12:35;;;;;;;5.50;3.45;;;19.30;99.90;;;;;;5021225;28;20195;-79
2023/08/23 00:15:04;;;;;;;5.80;3.55;;;19.40;99.90;;;;;;5013037;28;20210;-82
2023/08/23 00:17:31;;;;;;;6.38;3.10;;;18.80;99.90;;;;;;5000913;28;20203;-79
2023/08/23 00:19:59;;;;;;;3.85;3.13;;;18.40;99.90;;;;;;5013631;28;20223;-79
2023/08/23 00:22:27;;;;;;;5.65;3.72;;;18.50;99.90;;;;;;5003315;28;20211;-83
2023/08/23 00:24:55;;;;;;;4.47;3.60;;;18.60;99.90;;;;;;5010112;28;20221;-81
2023/08/23 00:27:23;;;;;;;4.72;3.47;;;18.50;99.90;;;;;;5009556;28;20241;-78
2023/08/23 00:29:52;;;;;;;6.13;3.50;;;18.20;99.90;;;;;;5017364;28;20214;-79
2023/08/23 00:32:19;;;;;;;3.42;3.13;;;18.20;99.90;;;;;;5012353;28;20199;-79
2023/08/23 00:34:49;;;;;;;6.85;3.20;;;18.00;99.90;;;;;;5012007;28;20197;-79
2023/08/23 00:37:17;;;;;;;4.13;3.38;;;18.10;99.90;;;;;;5007193;28;20207;-80
2023/08/23 00:39:45;;;;;;;7.32;4.00;;;18.30;99.90;;;;;;5011829;28;20297;-80
2023/08/23 00:42:12;;;;;;;5.30;3.13;;;18.40;99.90;;;;;;5024296;28;20218;-79
2023/08/23 00:44:45;;;;;;;3.80;3.20;;;18.50;99.90;;;;;;5020002;28;20207;-79
2023/08/23 00:47:12;;;;;;;8.82;3.60;;;18.50;99.90;;;;;;5007663;28;20196;-79
2023/08/23 00:49:40;;;;;;;7.35;3.38;;;18.50;99.90;;;;;;5012112;28;20237;-79
2023/08/23 00:52:07;;;;;;;7.60;4.00;;;18.50;99.90;;;;;;5016735;28;20202;-79
2023/08/23 00:54:36;;;;;;;6.00;3.63;;;18.40;99.90;;;;;;5029968;28;20203;-79
2023/08/23 00:57:05;;;;;;;4.55;3.30;;;18.30;99.90;;;;;;5025927;28;20210;-79
2023/08/23 00:59:35;;;;;;;3.97;3.53;;;18.20;99.90;;;;;;5016973;28;20219;-79
2023/08/23 01:02:04;;;;;;;4.97;3.83;;;18.30;99.90;;;;;;5015808;28;20586;-80
2023/08/23 01:04:31;;;;;;;5.20;4.05;;;18.50;99.90;;;;;;5004293;28;20211;-79
2023/08/23 01:07:09;;;;;;;6.95;4.00;;;18.80;99.90;;;;;;5015121;28;20207;-79
2023/08/23 01:09:46;;;;;;;7.88;4.35;;;18.60;99.90;;;;;;5015347;28;20557;-79
2023/08/23 01:12:23;;;;;;;5.00;3.28;;;18.20;99.90;;;;;;5013191;28;20191;-79
2023/08/23 01:14:55;;;;;;;6.40;4.10;;;18.00;99.90;;;;;;5019548;28;20417;-79
2023/08/23 01:17:25;;;;;;;7.40;4.10;;;18.50;99.90;;;;;;5016199;28;20683;-81
2023/08/23 01:19:54;;;;;;;5.47;4.28;;;18.30;99.90;;;;;;5016314;28;20577;-79
2023/08/23 01:22:23;;;;;;;6.65;3.97;;;18.20;99.90;;;;;;5022811;28;20230;-79
2023/08/23 01:24:52;;;;;;;5.72;3.90;;;18.50;99.90;;;;;;5014857;28;20195;-79
2023/08/23 01:27:20;;;;;;;6.40;3.95;;;18.20;99.90;;;;;;5023684;28;20199;-79
2023/08/23 01:29:48;;;;;;;6.53;4.45;;;18.40;99.90;;;;;;5004815;28;20219;-79
2023/08/23 01:32:31;;;;;;;6.68;4.78;;;18.30;99.90;;;;;;5027576;28;20202;-79
2023/08/23 01:35:06;;;;;;;4.72;4.20;;;17.90;99.90;;;;;;5020608;28;20568;-80
2023/08/23 01:37:34;;;;;;;6.28;4.18;;;17.90;99.90;;;;;;5022939;28;20198;-79
2023/08/23 01:40:03;;;;;;;6.20;4.43;;;18.00;99.90;;;;;;5027782;28;20239;-79
2023/08/23 01:42:32;;;;;;;7.00;4.15;;;18.10;99.90;;;;;;5022078;28;20215;-80
2023/08/23 01:44:59;;;;;;;5.70;4.68;;;18.00;99.90;;;;;;5025102;28;20206;-79
2023/08/23 01:47:26;;;;;;;6.60;4.40;;;18.00;99.90;;;;;;5008611;28;20568;-82
2023/08/23 01:49:54;;;;;;;6.07;4.65;;;18.20;99.90;;;;;;5034864;28;20681;-79
2023/08/23 01:52:24;;;;;;;6.43;4.50;;;18.20;99.90;;;;;;5026423;28;20199;-79
2023/08/23 01:54:51;;;;;;;8.82;4.72;;;18.20;99.90;;;;;;5016446;28;20207;-79
2023/08/23 01:57:20;;;;;;;5.65;4.32;;;18.20;99.90;;;;;;5013865;28;20253;-79
2023/08/23 01:59:49;;;;;;;9.25;4.63;;;18.20;99.90;;;;;;5027179;28;20218;-80
2023/08/23 02:02:17;;;;;;;6.53;5.05;;;18.40;99.90;;;;;;5016748;28;20210;-79
2023/08/23 02:04:45;;;;;;;5.32;4.15;;;18.20;99.90;;;;;;5010655;28;20206;-78
2023/08/23 02:07:12;;;;;;;6.63;4.80;;;18.20;99.90;;;;;;5018978;28;20203;-78
2023/08/23 02:09:40;;;;;;;6.05;4.80;;;17.90;99.90;;;;;;5013636;28;20680;-79
2023/08/23 02:12:09;;;;;;;4.82;4.28;;;17.90;99.90;;;;;;5011520;28;20198;-79
2023/08/23 02:14:38;;;;;;;5.30;3.97;;;18.00;99.90;;;;;;5006620;28;20570;-79
2023/08/23 02:17:05;;;;;;;5.85;4.70;;;17.90;99.90;;;;;;5003827;28;20203;-79
2023/08/23 02:19:33;;;;;;;5.50;4.50;;;17.80;99.90;;;;;;5020193;28;20233;-79
2023/08/23 02:22:01;;;;;;;5.65;4.35;;;17.80;99.90;;;;;;5008666;28;20206;-79
2023/08/23 02:24:28;;;;;;;5.35;4.60;;;17.90;99.90;;;;;;5018928;28;20200;-79
2023/08/23 02:26:55;;;;;;;5.50;4.60;;;17.80;99.90;;;;;;5016541;28;20210;-79
2023/08/23 02:29:23;;;;;;;7.20;4.45;;;17.80;99.90;;;;;;5006691;28;20218;-79
2023/08/23 02:31:52;;;;;;;6.55;5.03;;;17.80;99.90;;;;;;5006395;28;20579;-79
2023/08/23 02:34:20;;;;;;;5.72;4.43;;;17.90;99.90;;;;;;5009029;28;20191;-78
2023/08/23 02:36:47;;;;;;;6.90;4.30;;;17.90;99.90;;;;;;5010129;28;20213;-78
2023/08/23 02:39:15;;;;;;;8.35;5.90;;;18.00;99.90;;;;;;5039672;28;20222;-80
2023/08/23 02:41:42;;;;;;;6.78;4.95;;;18.00;99.90;;;;;;5038742;28;20552;-79
2023/08/23 02:44:10;;;;;;;6.60;4.55;;;18.20;99.90;;;;;;5017039;28;20233;-79
2023/08/23 02:46:37;;;;;;;8.60;4.78;;;18.50;99.90;;;;;;5008031;28;20203;-79
2023/08/23 02:49:06;;;;;;;6.35;5.00;;;18.50;99.90;;;;;;5022410;28;20205;-79
2023/08/23 02:51:33;;;;;;;6.95;4.93;;;18.70;99.90;;;;;;5021597;28;20196;-79
2023/08/23 02:54:01;;;;;;;5.38;4.60;;;18.70;99.90;;;;;;5025783;28;20206;-79
2023/08/23 02:56:28;;;;;;;12.20;4.82;;;18.60;99.90;;;;;;5007699;28;20666;-80
2023/08/23 02:58:56;;;;;;;5.85;4.82;;;18.60;99.90;;;;;;5008970;28;20214;-79
2023/08/23 03:01:24;;;;;;;6.22;4.75;;;18.50;99.90;;;;;;5006335;28;20200;-79
2023/08/23 03:03:52;;;;;;;6.50;5.07;;;18.50;99.90;;;;;;5009510;28;20224;-79
2023/08/23 03:06:21;;;;;;;5.47;4.38;;;18.40;99.90;;;;;;5003004;28;20203;-79
2023/08/23 03:08:49;;;;;;;8.25;5.80;;;18.30;99.90;;;;;;5027342;28;20205;-78
2023/08/23 03:11:17;;;;;;;7.95;5.40;;;18.30;99.90;;;;;;5028191;28;20217;-78
2023/08/23 03:13:44;;;;;;;7.55;4.88;;;17.90;99.90;;;;;;5012518;28;20657;-78
2023/08/23 03:16:13;;;;;;;7.38;5.47;;;17.90;99.90;;;;;;5008864;28;20191;-79
2023/08/23 03:18:40;;;;;;;8.52;5.32;;;17.70;99.90;;;;;;5031529;28;20203;-79
2023/08/23 03:21:08;;;;;;;8.13;5.40;;;17.80;99.90;;;;;;5008265;28;20220;-78
2023/08/23 03:23:40;;;;;;;10.10;5.95;;;17.60;99.90;;;;;;5012688;28;20219;-79
2023/08/23 03:26:08;;;;;;;7.03;6.32;;;17.30;99.90;;;;;;5006746;28;20206;-78
2023/08/23 03:28:35;;;;;;;7.75;5.78;;;17.30;99.90;;;;;;5016681;28;20204;-78
2023/08/23 03:31:07;;;;;;;6.90;6.03;;;17.30;99.90;;;;;;5024649;28;20229;-78
2023/08/23 03:33:35;;;;;;;9.70;6.90;;;17.30;99.90;;;;;;5019487;28;20195;-78
2023/08/23 03:36:02;;;;;;;8.60;5.72;;;17.20;99.90;;;;;;5031424;28;20199;-78
2023/08/23 03:38:30;;;;;;;8.23;5.70;;;17.10;99.90;;;;;;5016268;28;20195;-78
2023/08/23 03:40:59;;;;;;;7.88;5.72;;;17.10;99.90;;;;;;5035478;28;20221;-78
2023/08/23 03:43:28;;;;;;;7.75;6.03;;;17.20;99.90;;;;;;5013639;28;20210;-80
2023/08/23 03:45:56;;;;;;;9.93;6.85;;;17.20;99.90;;;;;;5027595;28;20694;-78
2023/08/23 03:48:25;;;;;;;10.90;6.03;;;17.20;99.90;;;;;;5030218;28;20199;-79
2023/08/23 03:50:53;;;;;;;7.78;6.10;;;17.40;99.90;;;;;;5015381;28;20458;-79
2023/08/23 03:53:20;;;;;;;8.15;6.10;;;17.10;99.90;;;;;;5017964;28;20194;-78
2023/08/23 03:55:52;;;;;;;7.05;6.30;;;17.10;99.90;;;;;;5011589;28;20199;-79
2023/08/23 03:58:21;;;;;;;9.63;6.40;;;17.30;99.90;;;;;;5010071;28;20201;-79
2023/08/23 04:00:50;;;;;;;7.72;6.03;;;17.40;99.90;;;;;;5009802;28;20225;-78
2023/08/23 04:03:17;;;;;;;7.40;6.53;;;17.40;99.90;;;;;;5018412;28;20707;-78
2023/08/23 04:05:46;;;;;;;8.95;6.32;;;17.60;99.90;;;;;;5025791;28;20202;-78
2023/08/23 04:08:14;;;;;;;7.95;6.20;;;17.50;99.90;;;;;;5021252;28;20566;-78
2023/08/23 04:10:46;;;;;;;7.38;5.82;;;17.30;99.90;;;;;;5020008;28;20226;-78
2023/08/23 04:13:15;;;;;;;7.22;5.35;;;17.40;99.90;;;;;;5002478;28;20199;-82
2023/08/23 04:15:45;;;;;;;6.80;5.63;;;17.50;99.90;;;;;;4999696;28;20588;-78
2023/08/23 04:18:13;;;;;;;8.00;5.72;;;17.40;99.90;;;;;;4999649;28;20199;-79
2023/08/23 04:20:41;;;;;;;7.90;5.78;;;17.40;99.90;;;;;;5006993;28;20231;-78
2023/08/23 04:23:09;;;;;;;8.45;5.95;;;17.40;99.90;;;;;;5010940;28;20226;-78
2023/08/23 04:25:36;;;;;;;6.57;5.75;;;17.60;99.90;;;;;;5004961;28;20661;-78
2023/08/23 04:28:04;;;;;;;9.60;6.50;;;17.50;99.90;;;;;;5017605;28;20207;-78
2023/08/23 04:30:32;;;;;;;8.15;6.80;;;17.60;99.90;;;;;;5027630;28;20233;-78
2023/08/23 04:33:01;;;;;;;8.85;6.18;;;17.50;99.90;;;;;;5018913;28;20203;-78
2023/08/23 04:35:28;;;;;;;9.98;6.65;;;17.80;99.90;;;;;;5004526;28;20673;-79
2023/08/23 04:37:56;;;;;;;8.77;6.40;;;17.70;99.90;;;;;;5035007;28;20205;-79
2023/08/23 04:40:23;;;;;;;11.25;6.70;;;17.50;99.90;;;;;;5034393;28;20221;-79
2023/08/23 04:43:08;;;;;;;11.25;6.38;;;17.20;99.90;;;;;;5034415;28;20194;-79
2023/08/23 04:45:38;;;;;;;8.95;6.20;;;17.10;99.90;;;;;;5028645;28;20206;-79
2023/08/23 04:48:08;;;;;;;7.05;6.28;;;17.40;99.90;;;;;;5012873;28;20209;-79
2023/08/23 04:50:36;;;;;;;8.30;6.18;;;17.40;99.90;;;;;;5017383;28;20223;-78
2023/08/23 04:53:04;;;;;;;8.43;6.03;;;17.20;99.90;;;;;;5022318;28;20206;-79
2023/08/23 04:55:33;;;;;;;7.43;6.03;;;17.10;99.90;;;;;;5016318;28;20198;-79
2023/08/23 04:58:01;;;;;;;6.45;5.72;;;17.10;99.90;;;;;;5021587;28;20205;-79
2023/08/23 05:00:28;;;;;;;9.13;5.50;;;17.20;99.90;;;;;;5023426;28;20230;-78
2023/08/23 05:02:56;;;;;;;9.02;6.30;;;17.40;99.90;;;;;;5026815;28;20209;-78
2023/08/23 05:05:24;;;;;;;8.40;5.82;;;17.50;99.90;;;;;;5014742;28;20570;-78
2023/08/23 05:07:52;;;;;;;7.07;6.07;;;17.80;99.90;;;;;;5025241;28;20587;-79
2023/08/23 05:10:20;;;;;;;7.10;6.07;;;17.50;99.90;;;;;;5017518;28;20226;-79
2023/08/23 05:12:48;;;;;;;8.43;7.07;;;17.30;99.90;;;;;;5017577;28;20843;-78
2023/08/23 05:15:16;;;;;;;11.10;5.57;;;17.20;99.90;;;;;;5003501;28;20689;-79
2023/08/23 05:17:43;;;;;;;7.30;5.90;;;17.50;99.90;;;;;;5022817;28;20217;-78
2023/08/23 05:20:13;;;;;;;10.50;6.25;;;17.60;99.90;;;;;;5023642;28;20235;-78
2023/08/23 05:22:42;;;;;;;7.80;5.82;;;17.60;99.90;;;;;;5003417;28;20206;-79
2023/08/23 05:25:10;;;;;;;8.88;5.63;;;17.60;99.90;;;;;;5019179;28;20226;-78
2023/08/23 05:27:37;;;;;;;9.55;5.85;;;17.60;99.90;;;;;;5014278;28;20210;-79
2023/08/23 05:30:06;;;;;;;10.43;7.50;;;17.50;99.90;;;;;;5004489;28;20235;-79
2023/08/23 05:32:33;;;;;;;10.88;7.55;;;17.60;99.90;;;;;;5007078;28;20207;-79
2023/08/23 05:35:01;;;;;;;9.93;7.40;;;17.60;99.90;;;;;;5018456;28;20207;-78
2023/08/23 05:37:28;;;;;;;7.47;6.78;;;17.60;99.90;;;;;;5013711;28;20211;-78
2023/08/23 05:39:57;;;;;;;8.30;5.35;;;17.80;99.90;;;;;;5013304;28;20230;-79
2023/08/23 05:42:25;;;;;;;7.70;6.43;;;18.10;99.90;;;;;;5013074;28;20215;-79
2023/08/23 05:44:53;;;;;;;7.45;5.97;;;18.50;99.90;;;;;;4997864;28;20220;-82
2023/08/23 05:47:21;;;;;;;7.07;6.30;;;18.50;99.90;;;;;;5006913;28;20200;-79
2023/08/23 05:49:48;;;;;;;8.50;5.97;;;18.50;99.90;;;;;;4994512;28;20219;-79
2023/08/23 05:52:31;;;;;;;11.38;7.45;;;18.80;99.90;;;;;;5006261;28;20214;-80
2023/08/23 05:55:00;;;;;;;9.27;6.82;;;18.70;99.90;;;;;;5019889;28;20208;-79
2023/08/23 05:57:27;;;;;;;8.63;6.75;;;18.70;99.90;;;;;;5004550;28;20661;-82
2023/08/23 05:59:54;;;;;;;8.98;7.07;;;18.50;99.90;;;;;;5021997;28;20222;-82
2023/08/23 06:02:23;;;;;;;10.75;7.40;;;18.40;99.90;;;;;;5036898;28;20207;-80
2023/08/23 06:04:50;;;;;;;10.95;8.32;;;18.50;99.90;;;;;;5025791;28;20211;-79
2023/08/23 06:07:18;;;;;;;11.35;9.13;;;18.60;99.90;;;;;;5030535;28;20214;-79
2023/08/23 06:09:45;;;;;;;12.50;8.98;;;18.60;99.90;;;;;;5017601;28;20222;-80
2023/08/23 06:12:14;;;;;;;12.82;7.88;;;18.80;99.90;;;;;;5027495;28;20206;-80
2023/08/23 06:14:41;;;;;;;10.20;6.78;;;19.10;99.90;;;;;;5038333;28;20194;-80
2023/08/23 06:17:09;;;;;;;16.55;9.55;;;19.30;99.90;;;;;;5038907;28;20209;-80
2023/08/23 06:19:36;;;;;;;7.47;6.75;;;19.40;99.90;;;;;;5038091;28;20217;-80
2023/08/23 06:22:04;;;;;;;7.28;6.13;;;19.60;99.90;;;;;;5038725;28;20209;-80
2023/08/23 06:24:31;;;;;;;8.57;5.88;;;19.90;99.90;;;;;;5038769;28;20581;-80
2023/08/23 06:26:58;;;;;;;10.30;8.07;;;20.20;99.90;;;;;;5038509;28;20202;-80
2023/08/23 06:29:27;;;;;;;8.02;6.72;;;20.20;99.90;;;;;;5038280;28;20218;-80
2023/08/23 06:31:55;;;;;;;14.27;10.50;;;20.10;99.90;;;;;;5039029;28;20210;-80
2023/08/23 06:34:22;;;;;;;12.63;8.88;;;19.90;99.90;;;;;;5038426;28;20209;-80
2023/08/23 06:36:49;;;;;;;13.05;9.35;;;20.00;99.90;;;;;;5037983;28;20209;-80
2023/08/23 06:39:17;;;;;;;9.05;7.47;;;20.10;99.90;;;;;;5037620;28;20218;-80
2023/08/23 06:41:45;;;;;;;10.40;7.53;;;20.30;99.90;;;;;;5038004;28;20198;-79
2023/08/23 06:44:12;;;;;;;11.10;7.53;;;20.40;99.90;;;;;;5037593;28;20202;-80
2023/08/23 06:46:41;;;;;;;9.25;6.93;;;20.40;99.90;;;;;;5038214;28;20194;-80
2023/08/23 06:49:12;;;;;;;10.90;8.68;;;20.60;99.90;;;;;;5056385;28;20171;-80
2023/08/23 06:51:39;;;;;;;10.27;6.93;;;20.80;99.90;;;;;;5038633;28;20194;-79
2023/08/23 06:54:06;;;;;;;12.35;10.23;;;20.80;99.90;;;;;;5042071;28;20201;-80
2023/08/23 06:56:34;;;;;;;10.63;7.63;;;20.70;99.90;;;;;;5038227;28;20683;-80
2023/08/23 06:59:01;;;;;;;8.18;6.53;;;20.90;99.90;;;;;;5037611;28;20194;-80
2023/08/23 07:01:32;;;;;;;15.63;10.18;;;20.80;99.90;;;;;;5037012;28;20198;-83
2023/08/23 07:04:02;;;;;;;15.02;8.63;;;20.90;99.90;;;;;;5043058;28;20190;-80
2023/08/23 07:06:31;;;;;;;9.48;7.13;;;21.00;99.90;;;;;;5027428;28;20219;-80
2023/08/23 07:08:59;;;;;;;14.70;11.15;;;21.10;99.90;;;;;;5027151;28;20198;-80
2023/08/23 07:11:26;;;;;;;15.18;11.07;;;20.70;99.90;;;;;;5034134;28;20213;-79
2023/08/23 07:13:53;;;;;;;15.40;11.70;;;20.50;99.90;;;;;;5026056;28;20195;-79
2023/08/23 07:16:21;;;;;;;16.10;12.20;;;20.40;99.90;;;;;;5017158;28;20199;-79
2023/08/23 07:18:48;;;;;;;19.02;13.88;;;20.50;99.90;;;;;;5023352;28;20206;-79
2023/08/23 07:21:17;;;;;;;16.98;13.02;;;20.60;99.90;;;;;;5013326;28;20441;-78
2023/08/23 07:23:45;;;;;;;17.40;13.18;;;20.30;99.90;;;;;;5013003;28;20192;-80
2023/08/23 07:26:12;;;;;;;16.17;11.80;;;20.10;99.90;;;;;;5015702;28;20297;-79
2023/08/23 07:28:40;;;;;;;15.30;11.98;;;20.30;99.90;;;;;;5046401;28;20198;-79
2023/08/23 07:31:07;;;;;;;16.58;10.43;;;20.20;99.90;;;;;;5016010;28;20253;-79
2023/08/23 07:33:34;;;;;;;14.07;11.80;;;20.30;99.90;;;;;;5007200;28;20207;-83
2023/08/23 07:36:02;;;;;;;18.85;12.15;;;20.20;99.90;;;;;;5005033;28;20211;-79
2023/08/23 07:38:32;;;;;;;12.15;9.77;;;20.30;99.90;;;;;;5007078;28;20230;-79
2023/08/23 07:41:01;;;;;;;13.50;9.25;;;20.40;99.90;;;;;;4997469;28;20223;-79
2023/08/23 07:43:28;;;;;;;14.88;10.73;;;20.70;99.90;;;;;;5003627;28;20234;-78
2023/08/23 07:45:57;;;;;;;13.50;10.70;;;20.70;99.90;;;;;;4994623;28;20216;-79
2023/08/23 07:48:26;;;;;;;14.32;10.05;;;20.70;99.90;;;;;;5004631;28;20203;-79
2023/08/23 07:50:55;;;;;;;11.35;8.98;;;20.80;99.90;;;;;;5013504;28;20229;-79
2023/08/23 07:53:23;;;;;;;12.75;9.00;;;21.10;99.90;;;;;;5003119;28;20204;-78
2023/08/23 07:55:52;;;;;;;15.02;10.63;;;21.30;99.90;;;;;;5000841;28;20199;-78
2023/08/23 07:58:19;;;;;;;15.85;10.05;;;21.30;99.90;;;;;;5004086;28;20664;-79
2023/08/23 08:00:47;;;;;;;10.32;8.15;;;21.20;99.90;;;;;;4995833;28;20235;-78
2023/08/23 08:03:14;;;;;;;15.07;9.20;;;21.40;99.90;;;;;;5003899;28;20214;-78
2023/08/23 08:05:42;;;;;;;11.35;8.13;;;21.30;99.90;;;;;;5012250;28;20223;-79
2023/08/23 08:08:09;;;;;;;9.65;8.57;;;21.30;99.90;;;;;;5013991;28;20206;-78
2023/08/23 08:10:37;;;;;;;11.43;7.95;;;21.60;99.90;;;;;;4997314;28;20231;-79
2023/08/23 08:13:06;;;;;;;12.48;7.72;;;21.70;99.90;;;;;;5029278;28;20191;-79
2023/08/23 08:15:34;;;;;;;11.15;7.93;;;21.90;99.90;;;;;;5007126;28;20195;-81
2023/08/23 08:18:02;;;;;;;12.88;9.82;;;22.00;99.90;;;;;;5006218;28;20214;-79
2023/08/23 08:20:29;;;;;;;14.85;9.45;;;22.00;99.90;;;;;;5009390;28;20215;-79
2023/08/23 08:22:57;;;;;;;12.40;10.48;;;21.90;99.90;;;;;;5017092;28;20194;-79
2023/08/23 08:25:24;;;;;;;15.13;9.82;;;21.80;99.90;;;;;;5015641;28;20215;-79
2023/08/23 08:27:53;;;;;;;15.95;11.10;;;22.00;99.90;;;;;;5002570;28;20238;-78
2023/08/23 08:30:22;;;;;;;12.48;10.48;;;21.90;99.90;;;;;;5004667;28;20238;-79
2023/08/23 08:32:49;;;;;;;13.95;9.35;;;21.80;99.90;;;;;;5020036;28;20217;-81
2023/08/23 08:35:16;;;;;;;13.82;9.10;;;21.90;99.90;;;;;;5004500;28;20198;-80
2023/08/23 08:37:44;;;;;;;12.50;9.70;;;22.10;99.90;;;;;;5014927;28;20199;-79
2023/08/23 08:40:12;;;;;;;12.68;8.75;;;22.00;99.90;;;;;;5016157;28;20223;-79
2023/08/23 08:42:39;;;;;;;13.88;8.23;;;22.00;99.90;;;;;;5021332;28;20192;-79
2023/08/23 08:45:08;;;;;;;11.32;8.05;;;22.30;99.90;;;;;;5012393;28;20428;-80
2023/08/23 08:47:36;;;;;;;15.20;8.52;;;22.30;99.90;;;;;;5013049;28;20227;-79
2023/08/23 08:50:05;;;;;;;11.07;8.27;;;22.30;99.90;;;;;;5023644;28;20598;-79
2023/08/23 08:52:50;;;;;;;14.10;10.00;;;22.40;99.90;;;;;;5011214;28;20681;-79
2023/08/23 08:55:20;;;;;;;11.52;7.40;;;22.20;99.90;;;;;;5007014;28;20203;-84
2023/08/23 08:57:52;;;;;;;9.48;6.60;;;22.30;99.90;;;;;;5018885;28;20203;-82
2023/08/23 09:00:22;;;;;;;7.75;5.85;;;22.40;99.90;;;;;;5001274;28;20234;-80
2023/08/23 09:02:53;;;;;;;8.10;5.68;;;22.40;99.90;;;;;;5041546;28;20190;-79
2023/08/23 09:05:21;;;;;;;9.48;6.75;;;22.40;99.90;;;;;;5012994;28;20194;-79
2023/08/23 09:07:49;;;;;;;10.02;7.20;;;22.50;99.90;;;;;;5010768;28;20217;-79
2023/08/23 09:10:17;;;;;;;12.05;6.45;;;22.40;99.90;;;;;;5015631;28;20233;-79
2023/08/23 09:12:45;;;;;;;12.57;7.50;;;22.40;99.90;;;;;;5038372;28;20190;-80
2023/08/23 09:15:12;;;;;;;14.27;7.30;;;22.50;99.90;;;;;;5017192;28;20199;-83
2023/08/23 09:17:40;;;;;;;8.50;6.85;;;22.60;99.90;;;;;;5010300;28;20194;-80
2023/08/23 09:20:10;;;;;;;11.43;6.93;;;22.70;99.90;;;;;;5001868;28;20223;-79
2023/08/23 09:22:37;;;;;;;11.38;7.85;;;22.60;99.90;;;;;;5028201;28;20207;-79
2023/08/23 09:25:08;;;;;;;10.27;7.60;;;22.60;99.90;;;;;;5020352;28;20207;-79
2023/08/23 09:27:45;;;;;;;11.40;6.68;;;22.60;99.90;;;;;;5019990;28;20218;-79
2023/08/23 09:30:14;;;;;;;9.20;6.45;;;22.80;99.90;;;;;;5035491;28;20211;-79
2023/08/23 09:32:42;;;;;;;10.05;6.53;;;22.90;99.90;;;;;;5012353;28;20215;-79
2023/08/23 09:35:12;;;;;;;11.27;6.72;;;23.10;99.90;;;;;;5005568;28;20212;-79
2023/08/23 09:37:41;;;;;;;9.80;6.85;;;23.20;99.90;;;;;;4993498;28;20192;-82
2023/08/23 09:40:20;;;;;;;11.05;6.57;;;23.20;99.90;;;;;;4998908;28;20231;-79
2023/08/23 09:42:48;;;;;;;12.98;7.75;;;23.30;99.90;;;;;;5000629;28;20648;-79
2023/08/23 09:45:20;;;;;;;9.40;6.18;;;23.30;99.90;;;;;;5031183;28;20679;-79
2023/08/23 09:47:54;;;;;;;8.00;5.93;;;23.30;99.90;;;;;;5035859;28;20765;-79
2023/08/23 09:50:31;;;;;;;8.63;6.90;;;23.30;99.90;;;;;;4996136;28;20231;-79
2023/08/23 09:56:50;;;;;;;11.85;6.95;;;23.50;99.90;;;;;;5030718;28;20206;-79
2023/08/23 09:59:24;;;;;;;9.65;7.10;;;23.50;99.90;;;;;;5037245;28;20230;-80
2023/08/23 10:02:00;;;;;;;6.82;5.75;;;23.50;99.90;;;;;;5008426;28;20203;-79
2023/08/23 10:04:29;;;;;;;7.95;6.15;;;23.40;99.90;;;;;;5000494;28;20681;-79
2023/08/23 10:06:59;;;;;;;8.18;5.70;;;23.50;99.90;;;;;;5003363;28;20234;-79
2023/08/23 10:09:28;;;;;;;9.40;6.10;;;23.60;99.90;;;;;;5004483;28;20732;-79
2023/08/23 10:11:56;;;;;;;7.07;5.35;;;23.60;99.90;;;;;;5013906;28;20213;-79
2023/08/23 10:14:24;;;;;;;7.57;5.38;;;23.60;99.90;;;;;;5017757;28;20645;-79
2023/08/23 10:16:52;;;;;;;5.95;4.75;;;23.60;99.90;;;;;;5021461;28;20682;-79
2023/08/23 10:19:28;;;;;;;8.38;5.28;;;23.90;99.90;;;;;;5004776;28;20219;-79
2023/08/23 10:21:58;;;;;;;9.07;5.10;;;23.80;99.90;;;;;;5006594;28;20214;-79
2023/08/23 10:24:29;;;;;;;9.38;5.75;;;24.00;99.90;;;;;;5024285;28;20198;-79
2023/08/23 10:26:56;;;;;;;7.82;5.80;;;23.90;99.90;;;;;;5007062;28;20210;-79
2023/08/23 10:29:26;;;;;;;7.18;5.15;;;24.00;99.90;;;;;;5012138;28;20218;-78
2023/08/23 10:31:54;;;;;;;9.18;5.65;;;23.90;99.90;;;;;;5010573;28;20221;-79
2023/08/23 10:34:29;;;;;;;7.97;5.50;;;24.10;99.90;;;;;;5015669;28;20202;-81
2023/08/23 10:36:57;;;;;;;5.40;4.88;;;24.30;99.90;;;;;;5034216;28;20194;-79
2023/08/23 10:39:25;;;;;;;6.85;4.85;;;24.40;99.90;;;;;;5017950;28;20232;-83
2023/08/23 10:41:54;;;;;;;7.20;5.10;;;24.60;99.90;;;;;;5000793;28;20203;-79
2023/08/23 10:44:22;;;;;;;7.85;6.25;;;24.60;99.90;;;;;;5004253;28;20685;-79
2023/08/23 10:46:51;;;;;;;6.40;5.75;;;24.50;99.90;;;;;;5009589;28;20576;-79
2023/08/23 10:49:20;;;;;;;7.45;5.53;;;24.30;99.90;;;;;;5017320;28;20230;-79
2023/08/23 10:51:48;;;;;;;10.05;6.38;;;24.40;99.90;;;;;;5014227;28;20202;-80
2023/08/23 10:54:25;;;;;;;8.98;6.88;;;24.40;99.90;;;;;;5016898;28;20661;-79
2023/08/23 10:56:52;;;;;;;8.45;5.80;;;24.30;99.90;;;;;;5027021;28;20206;-79
2023/08/23 10:59:20;;;;;;;8.63;6.40;;;24.40;99.90;;;;;;5003145;28;20219;-82
2023/08/23 11:01:48;;;;;;;9.73;6.28;;;24.40;99.90;;;;;;5017384;28;20195;-80
2023/08/23 11:04:16;;;;;;;9.73;6.63;;;24.20;99.90;;;;;;5009410;28;20592;-80
2023/08/23 11:06:45;;;;;;;8.93;6.28;;;24.30;99.90;;;;;;5009325;28;20211;-80
2023/08/23 11:09:12;;;;;;;7.63;6.43;;;24.40;99.90;;;;;;5010636;28;20199;-81
2023/08/23 11:11:41;;;;;;;10.00;7.13;;;24.70;99.90;;;;;;5015872;28;20206;-81
2023/08/23 11:14:09;;;;;;;10.23;6.82;;;24.60;99.90;;;;;;5020684;28;20663;-80
2023/08/23 11:16:38;;;;;;;7.40;6.68;;;24.70;99.90;;;;;;5017266;28;20199;-80
2023/08/23 11:19:07;;;;;;;7.60;5.63;;;25.00;99.90;;;;;;4995268;28;20215;-80
2023/08/23 11:21:36;;;;;;;6.85;5.72;;;25.30;99.90;;;;;;5002764;28;20211;-80
2023/08/23 11:24:04;;;;;;;8.43;5.18;;;25.60;99.90;;;;;;5002125;28;20219;-83
2023/08/23 11:26:33;;;;;;;9.35;7.72;;;25.90;99.90;;;;;;5007680;28;20210;-80
2023/08/23 11:29:02;;;;;;;9.38;6.05;;;25.60;99.90;;;;;;5010958;28;20559;-80
2023/08/23 11:31:30;;;;;;;10.30;7.82;;;25.90;99.90;;;;;;5016417;28;20221;-80
2023/08/23 11:34:06;;;;;;;9.02;6.43;;;25.70;99.90;;;;;;5031450;28;20198;-80
2023/08/23 11:36:35;;;;;;;9.98;6.63;;;25.80;99.90;;;;;;5014680;28;20223;-80
2023/08/23 11:39:04;;;;;;;7.63;5.50;;;25.60;99.90;;;;;;5006855;28;20670;-80
2023/08/23 11:41:33;;;;;;;7.20;5.05;;;25.60;99.90;;;;;;5004773;28;20203;-81
2023/08/23 11:44:05;;;;;;;5.22;4.35;;;25.60;99.90;;;;;;5000029;28;20230;-80
2023/08/23 11:46:38;;;;;;;5.88;5.30;;;25.40;99.90;;;;;;4995680;28;20212;-80
2023/08/23 11:49:06;;;;;;;6.00;5.45;;;25.30;99.40;;;;;;5001898;28;20995;-80
2023/08/23 11:51:39;;;;;;;6.63;5.47;;;25.30;99.50;;;;;;5011609;28;20282;-82
2023/08/23 11:54:07;;;;;;;6.68;4.88;;;25.60;99.30;;;;;;5003315;28;20207;-80
2023/08/23 11:56:34;;;;;;;5.60;5.05;;;25.80;98.90;;;;;;4994727;28;20200;-80
2023/08/23 11:59:03;;;;;;;6.07;4.90;;;25.90;98.00;;;;;;5000171;28;20213;-80
2023/08/23 12:01:31;;;;;;;5.38;4.65;;;26.10;98.00;;;;;;5032066;28;20649;-80
2023/08/23 12:03:58;;;;;;;7.18;5.10;;;26.20;98.10;;;;;;5008526;28;20683;-80
2023/08/23 12:06:26;;;;;;;6.22;5.55;;;26.20;95.20;;;;;;5030345;28;20195;-80
2023/08/23 12:08:55;;;;;;;7.60;5.00;;;26.00;94.40;;;;;;5025841;28;20211;-81
2023/08/23 12:11:23;;;;;;;7.15;5.93;;;26.30;95.50;;;;;;5020774;28;20207;-81
2023/08/23 12:13:50;;;;;;;5.40;4.82;;;26.40;96.80;;;;;;5015404;28;20210;-80
2023/08/23 12:16:27;;;;;;;10.25;7.50;;;26.70;96.70;;;;;;5017798;28;20211;-81
2023/08/23 12:19:05;;;;;;;11.77;7.63;;;26.50;95.50;;;;;;5014220;28;20194;-81
2023/08/23 12:21:38;;;;;;;8.98;6.07;;;26.30;96.10;;;;;;5008832;28;20196;-81
2023/08/23 12:24:05;;;;;;;6.43;5.93;;;26.40;96.10;;;;;;5020954;28;20708;-81
2023/08/23 12:26:33;;;;;;;5.85;5.18;;;26.40;95.30;;;;;;5035922;22;20234;-78
2023/08/23 12:29:00;;;;;;;5.50;4.80;;;26.80;94.60;;;;;;5008464;28;20711;-78
2023/08/23 12:31:29;;;;;;;7.38;5.93;;;26.80;94.00;;;;;;5017323;28;20211;-78
2023/08/23 12:33:57;;;;;;;5.95;5.45;;;26.80;91.80;;;;;;5029738;28;20204;-78
2023/08/23 12:36:25;;;;;;;6.35;5.55;;;26.80;91.30;;;;;;5026205;28;20218;-78
2023/08/23 12:38:52;;;;;;;8.23;5.35;;;26.80;91.00;;;;;;5011083;28;20199;-78
2023/08/23 12:41:20;;;;;;;5.22;4.78;;;26.80;92.10;;;;;;5019965;28;20201;-78
2023/08/23 12:43:47;;;;;;;7.22;4.78;;;27.00;91.60;;;;;;5012952;28;20210;-78
2023/08/23 12:46:14;;;;;;;6.07;4.55;;;27.20;91.50;;;;;;5022529;28;20220;-78
2023/08/23 12:48:43;;;;;;;6.68;5.35;;;27.30;91.00;;;;;;4996080;28;20246;-78
2023/08/23 12:51:10;;;;;;;6.55;5.30;;;27.00;91.50;;;;;;5022871;28;20199;-78
2023/08/23 12:53:38;;;;;;;6.72;5.10;;;27.20;91.10;;;;;;5015519;28;20206;-77